createdAt,value
2023-03-21T00:04:25.033Z,6.82
2023-03-21T00:09:27.917Z,6.81
2023-03-21T00:14:30.612Z,6.80
2023-03-21T00:19:32.796Z,6.79
2023-03-21T00:24:35.601Z,6.77
2023-03-21T00:29:37.789Z,6.73
2023-03-21T00:34:48.497Z,6.70
2023-03-21T00:39:56.439Z,6.67
2023-03-21T00:44:58.261Z,6.65
2023-03-21T00:50:00.158Z,6.64
2023-03-21T00:55:01.910Z,6.65
2023-03-21T01:00:07.345Z,6.66
2023-03-21T01:05:11.320Z,6.67
2023-03-21T01:10:13.277Z,6.68
2023-03-21T01:15:15.254Z,6.67
2023-03-21T01:20:17.645Z,6.63
2023-03-21T01:25:22.719Z,6.59
2023-03-21T01:30:24.980Z,6.54
2023-03-21T01:35:32.030Z,6.49
2023-03-21T01:40:40.101Z,6.48
2023-03-21T01:46:04.053Z,6.47
2023-03-21T01:51:06.889Z,6.47
2023-03-21T01:56:17.981Z,6.48
2023-03-21T02:01:22.483Z,6.50
2023-03-21T02:06:35.052Z,6.51
2023-03-21T02:11:38.573Z,6.52
2023-03-21T02:16:46.734Z,6.54
2023-03-21T02:22:07.713Z,6.56
2023-03-21T02:27:21.470Z,6.56
2023-03-21T02:32:41.686Z,6.57
2023-03-21T02:38:09.360Z,6.58
2023-03-21T02:43:23.402Z,6.58
2023-03-21T02:48:44.736Z,6.59
2023-03-21T02:54:25.007Z,6.59
2023-03-21T02:59:25.387Z,6.60
2023-03-21T03:04:28.162Z,6.60
2023-03-21T03:09:47.053Z,6.60
2023-03-21T03:15:27.842Z,6.58
2023-03-21T03:20:52.874Z,6.54
2023-03-21T03:26:03.862Z,6.52
2023-03-21T03:31:10.119Z,6.51
2023-03-21T03:36:30.572Z,6.52
2023-03-21T03:42:07.976Z,6.52
2023-03-21T03:47:56.405Z,6.52
2023-03-21T03:53:25.018Z,6.54
2023-03-21T03:58:39.481Z,6.56
2023-03-21T04:03:56.430Z,6.57
2023-03-21T04:09:18.739Z,6.57
2023-03-21T04:14:23.748Z,6.59
2023-03-21T04:19:26.346Z,6.59
2023-03-21T04:24:33.019Z,6.60
2023-03-21T04:29:34.788Z,6.60
2023-03-21T04:34:39.944Z,6.60
2023-03-21T04:39:42.535Z,6.62
2023-03-21T04:44:45.742Z,6.63
2023-03-21T04:49:51.338Z,6.63
2023-03-21T04:54:53.183Z,6.64
2023-03-21T04:59:55.159Z,6.65
2023-03-21T05:04:57.138Z,6.65
2023-03-21T05:10:00.805Z,6.65
2023-03-21T05:15:05.661Z,6.67
2023-03-21T05:20:10.952Z,6.71
2023-03-21T05:25:13.158Z,6.74
2023-03-21T05:30:18.734Z,6.78
2023-03-21T05:35:21.095Z,6.82
2023-03-21T05:40:23.177Z,6.84
2023-03-21T05:45:25.465Z,6.87
2023-03-21T05:50:27.743Z,6.94
2023-03-21T05:55:29.526Z,7.02
2023-03-21T06:00:31.730Z,7.09
2023-03-21T06:05:33.499Z,7.19
2023-03-21T06:10:35.266Z,7.34
2023-03-21T06:15:37.352Z,7.50
2023-03-21T06:20:40.245Z,7.63
2023-03-21T06:25:42.282Z,7.77
2023-03-21T06:30:44.205Z,7.89
2023-03-21T06:35:52.316Z,7.90
2023-03-21T06:40:54.638Z,7.86
2023-03-21T06:45:57.611Z,7.81
2023-03-21T06:50:59.795Z,7.74
2023-03-21T06:56:02.725Z,7.67
2023-03-21T07:01:07.205Z,7.60
2023-03-21T07:06:11.400Z,7.55
2023-03-21T07:11:13.757Z,7.50
2023-03-21T07:16:18.388Z,7.46
2023-03-21T07:21:20.992Z,7.41
2023-03-21T07:26:23.692Z,7.40
2023-03-21T07:31:26.621Z,7.40
2023-03-21T07:36:28.467Z,7.46
2023-03-21T07:41:30.753Z,7.61
2023-03-21T07:46:32.849Z,9.26
2023-03-21T07:51:35.648Z,13.56
2023-03-21T07:56:37.303Z,17.36
2023-03-21T08:01:39.694Z,20.24
2023-03-21T08:06:41.981Z,20.67
2023-03-21T08:11:43.960Z,19.59
2023-03-21T08:16:45.856Z,18.31
2023-03-21T08:21:49.249Z,17.45
2023-03-21T08:26:51.125Z,16.16
2023-03-21T08:31:52.908Z,15.17
2023-03-21T08:36:54.883Z,15.15
2023-03-21T08:41:56.552Z,15.25
2023-03-21T08:46:58.226Z,15.15
2023-03-21T08:51:59.904Z,14.63
2023-03-21T08:57:02.082Z,13.80
2023-03-21T09:02:04.479Z,13.37
2023-03-21T09:07:06.458Z,13.28
2023-03-21T09:12:09.056Z,13.42
2023-03-21T09:17:11.233Z,13.11
2023-03-21T09:22:17.609Z,12.53
2023-03-21T09:27:24.916Z,12.15
2023-03-21T09:32:27.819Z,11.97
2023-03-21T09:37:32.662Z,11.94
2023-03-21T09:42:43.457Z,12.10
2023-03-21T09:47:56.646Z,12.02
2023-03-21T09:53:20.686Z,11.86
2023-03-21T09:58:31.273Z,11.87
2023-03-21T10:03:37.042Z,11.84
2023-03-21T10:08:41.576Z,11.93
2023-03-21T10:13:52.257Z,11.99
2023-03-21T10:18:55.263Z,12.06
2023-03-21T10:23:57.749Z,11.93
2023-03-21T10:29:01.960Z,11.61
2023-03-21T10:34:16.048Z,11.48
2023-03-21T10:39:27.038Z,11.34
2023-03-21T10:44:35.172Z,11.10
2023-03-21T10:50:05.864Z,10.93
2023-03-21T10:55:33.177Z,10.76
2023-03-21T11:00:40.680Z,10.61
2023-03-21T11:05:43.899Z,10.56
2023-03-21T11:11:02.876Z,10.62
2023-03-21T11:16:35.122Z,10.84
2023-03-21T11:21:38.589Z,11.18
2023-03-21T11:26:43.125Z,11.31
2023-03-21T11:31:46.182Z,11.31
2023-03-21T11:36:50.976Z,11.55
2023-03-21T11:41:53.800Z,11.82
2023-03-21T11:46:56.578Z,12.03
2023-03-21T11:52:14.122Z,12.15
2023-03-21T11:57:56.302Z,12.23
2023-03-21T12:03:15.218Z,12.33
2023-03-21T12:08:31.118Z,12.32
2023-03-21T12:13:45.079Z,12.14
2023-03-21T12:19:05.812Z,11.96
2023-03-21T12:24:18.219Z,11.72
2023-03-21T12:29:36.477Z,11.51
2023-03-21T12:34:57.874Z,11.40
2023-03-21T12:40:13.537Z,11.29
2023-03-21T12:45:26.097Z,11.07
2023-03-21T12:50:37.131Z,10.90
2023-03-21T12:55:41.053Z,10.83
2023-03-21T13:00:53.120Z,10.76
2023-03-21T13:05:59.460Z,10.79
2023-03-21T13:11:02.935Z,10.97
2023-03-21T13:16:15.812Z,11.12
2023-03-21T13:21:59.445Z,11.24
2023-03-21T13:27:03.992Z,11.47
2023-03-21T13:32:30.845Z,11.68
2023-03-21T13:37:35.295Z,11.74
2023-03-21T13:42:44.236Z,11.75
2023-03-21T13:48:00.667Z,11.73
2023-03-21T13:53:15.042Z,11.80
2023-03-21T13:58:38.104Z,11.82
2023-03-21T14:03:41.417Z,11.68
2023-03-21T14:08:49.153Z,11.57
2023-03-21T14:13:53.663Z,11.51
2023-03-21T14:19:00.558Z,11.39
2023-03-21T14:24:07.578Z,11.22
2023-03-21T14:29:34.894Z,11.10
2023-03-21T14:34:37.214Z,11.01
2023-03-21T14:39:39.503Z,10.93
2023-03-21T14:44:54.890Z,10.85
2023-03-21T14:50:00.828Z,10.79
2023-03-21T14:55:14.625Z,10.73
2023-03-21T15:00:28.991Z,10.72
2023-03-21T15:05:38.119Z,10.75
2023-03-21T15:10:40.630Z,10.67
2023-03-21T15:15:44.268Z,10.52
2023-03-21T15:20:48.710Z,10.38
2023-03-21T15:25:51.181Z,10.24
2023-03-21T15:30:54.689Z,10.12
2023-03-21T15:36:00.688Z,9.95
2023-03-21T15:41:21.206Z,9.82
2023-03-21T15:46:41.796Z,9.70
2023-03-21T15:52:05.484Z,9.59
2023-03-21T15:57:19.439Z,9.49
2023-03-21T16:02:24.328Z,9.39
2023-03-21T16:07:27.701Z,9.29
2023-03-21T16:12:30.505Z,9.18
2023-03-21T16:17:38.994Z,9.07
2023-03-21T16:22:41.430Z,8.94
2023-03-21T16:27:45.654Z,8.81
2023-03-21T16:32:49.405Z,8.65
2023-03-21T16:37:51.347Z,8.50
2023-03-21T16:42:54.252Z,8.33
2023-03-21T16:47:57.258Z,8.15
2023-03-21T16:53:00.258Z,7.97
2023-03-21T16:58:03.059Z,7.78
2023-03-21T17:03:14.338Z,7.57
2023-03-21T17:08:20.605Z,7.38
2023-03-21T17:13:25.127Z,7.17
2023-03-21T17:18:27.260Z,6.96
2023-03-21T17:23:29.860Z,6.73
2023-03-21T17:28:32.237Z,6.50
2023-03-21T17:33:34.639Z,6.25
2023-03-21T17:38:37.646Z,6.02
2023-03-21T17:43:40.233Z,5.82
2023-03-21T17:48:43.842Z,5.63
2023-03-21T17:53:49.360Z,5.46
2023-03-21T17:58:57.028Z,5.28
2023-03-21T18:04:04.598Z,5.08
2023-03-21T18:09:12.241Z,4.87
2023-03-21T18:14:19.190Z,4.70
2023-03-21T18:19:25.203Z,4.55
2023-03-21T18:24:29.237Z,4.41
2023-03-21T18:30:19.766Z,4.26
2023-03-21T18:35:01.512Z,4.12
2023-03-21T18:40:10.858Z,3.98
2023-03-21T18:45:24.184Z,3.88
2023-03-21T18:50:29.086Z,3.82
2023-03-21T18:55:45.504Z,3.78
2023-03-21T19:00:54.860Z,3.74
2023-03-21T19:06:00.218Z,3.67
2023-03-21T19:11:06.272Z,3.56
2023-03-21T19:16:11.728Z,3.42
2023-03-21T19:21:14.970Z,3.28
2023-03-21T19:26:20.114Z,3.16
2023-03-21T19:31:25.686Z,3.07
2023-03-21T19:36:34.441Z,3.03
2023-03-21T19:41:40.543Z,2.98
2023-03-21T19:46:46.058Z,2.92
2023-03-21T19:51:49.391Z,2.87
2023-03-21T19:56:51.877Z,2.83
2023-03-21T20:02:06.694Z,2.77
2023-03-21T20:07:20.481Z,2.70
2023-03-21T20:12:23.548Z,2.61
2023-03-21T20:17:27.981Z,2.53
2023-03-21T20:22:58.914Z,2.47
2023-03-21T20:28:11.115Z,2.40
2023-03-21T20:33:16.404Z,2.35
2023-03-21T20:38:21.043Z,2.32
2023-03-21T20:48:51.525Z,2.26
2023-03-21T20:53:59.112Z,2.18
2023-03-21T20:59:16.626Z,2.06
2023-03-21T21:09:58.432Z,1.84
2023-03-21T21:15:05.824Z,1.76
2023-03-21T21:20:20.904Z,1.70
2023-03-21T21:25:26.801Z,1.63
2023-03-21T21:30:32.061Z,1.57
2023-03-21T21:35:37.281Z,1.55
2023-03-21T21:40:40.595Z,1.53
2023-03-21T21:45:43.600Z,1.47
2023-03-21T21:50:47.215Z,1.39
2023-03-21T21:55:50.823Z,1.32
2023-03-21T22:00:54.379Z,1.25
2023-03-21T22:06:02.906Z,1.19
2023-03-21T22:11:06.364Z,1.13
2023-03-21T22:16:09.005Z,1.08
2023-03-21T22:21:10.759Z,1.02
2023-03-21T22:26:12.611Z,0.96
2023-03-21T22:31:16.536Z,0.89
2023-03-21T22:36:19.876Z,0.83
2023-03-21T22:41:22.569Z,0.80
2023-03-21T22:46:24.370Z,0.80
2023-03-21T22:51:26.739Z,0.82
2023-03-21T22:56:28.712Z,0.83
2023-03-21T23:01:31.249Z,0.80
2023-03-21T23:06:33.390Z,0.76
2023-03-21T23:11:36.800Z,0.73
2023-03-21T23:16:38.985Z,0.68
2023-03-21T23:21:41.164Z,0.64
2023-03-21T23:26:42.955Z,0.62
2023-03-21T23:31:45.327Z,0.59
2023-03-21T23:36:47.324Z,0.54
2023-03-21T23:41:49.601Z,0.49
2023-03-21T23:46:52.193Z,0.44
2023-03-21T23:51:53.863Z,0.41
2023-03-21T23:56:55.634Z,0.43
